Ufimets — UFNC — position and weather

sailwx.info

Track history (hours):
 
Tides and Currents Weather Stations Pressure Air Temp Water Temp Dewpoint Dewpoint Depression Visibility Wind Speed Wind Dir Waves Ship Positions

Ufimets

Last reported at 2016-Jul-29 17:33 UTC. Time now 2016-Jul-29 17:54 UTC.
Position N 59°56' E 030°17'.

Length 82 m; draft 1.8 m.

Type: Ship. MMSI: 27343260.

Date/timePositionNaut miles runAvg speedWind from/ knotsBaromVisibWave heightAir tempDewpointWater temp
2016-Jul-29 17:33N 59°56' E 030°17'5 5.2
2016-Jul-29 16:32N 59°57' E 030°07'8 7.6
2016-Jul-29 15:33N 59°57' E 029°51'  
2016-Jul-27 09:33N 60°18' E 028°28'15 7.5
2016-Jul-27 07:33N 60°11' E 028°55'28 7.1
2016-Jul-27 03:33N 59°59' E 029°46'4 4.5
2016-Jul-27 02:33N 59°57' E 029°54'6 5.9
2016-Jul-27 01:33N 59°54' E 030°05'6 5.8
2016-Jul-27 00:33N 59°55' E 030°16'4 3.8
2016-Jul-26 23:33N 59°56' E 030°24'0 0.2
2016-Jul-26 22:33N 59°55' E 030°24'0 0.0
2016-Jul-26 21:33N 59°55' E 030°24'0 0.0
2016-Jul-26 18:30N 59°55' E 030°24'0 0.0
2016-Jul-26 17:29N 59°55' E 030°24'0 0.0
2016-Jul-26 16:33N 59°55' E 030°24'0 0.0
2016-Jul-26 15:21N 59°55' E 030°24'0 0.0
2016-Jul-26 14:32N 59°55' E 030°24'0 0.0
2016-Jul-26 13:33N 59°55' E 030°24'0 0.0
2016-Jul-26 12:29N 59°55' E 030°24'0 0.0
2016-Jul-26 11:31N 59°55' E 030°24'0 0.0
2016-Jul-26 10:33N 59°55' E 030°24'0 0.0
2016-Jul-26 09:33N 59°55' E 030°24'0 0.0
2016-Jul-26 08:33N 59°55' E 030°24'4 4.0
2016-Jul-26 07:28N 59°52' E 030°29'  
2016-Jul-20 01:22N 59°48' E 030°39'6 5.2
2016-Jul-20 00:16N 59°51' E 030°30'4 5.6
2016-Jul-19 23:30N 59°55' E 030°25'4 4.1
2016-Jul-19 22:33N 59°56' E 030°18'0 0.3
2016-Jul-19 21:33N 59°56' E 030°17'0 0.0
2016-Jul-19 20:33N 59°56' E 030°17'0 0.0
2016-Jul-19 19:33N 59°56' E 030°17'0 0.0
2016-Jul-19 18:33N 59°56' E 030°17'0 0.0
2016-Jul-19 17:33N 59°56' E 030°17'  
Track history (hours):
 
Tides and Currents Weather Stations Pressure Air Temp Water Temp Dewpoint Dewpoint Depression Visibility Wind Speed Wind Dir Waves Ship Positions

Ufimets

Last reported at 2016-Jul-29 17:33 UTC. Time now 2016-Jul-29 17:54 UTC.
Position N 59°56' E 030°17'.

Length 82 m; draft 1.8 m.

Type: Ship. MMSI: 27343260.

Date/timePositionNaut miles runAvg speedWind from/ knotsBaromVisibWave heightAir tempDewpointWater temp
2016-Jul-29 17:33N 59°56' E 030°17'5 5.2
2016-Jul-29 16:32N 59°57' E 030°07'8 7.6
2016-Jul-29 15:33N 59°57' E 029°51'  
2016-Jul-27 09:33N 60°18' E 028°28'15 7.5
2016-Jul-27 07:33N 60°11' E 028°55'28 7.1
2016-Jul-27 03:33N 59°59' E 029°46'4 4.5
2016-Jul-27 02:33N 59°57' E 029°54'6 5.9
2016-Jul-27 01:33N 59°54' E 030°05'6 5.8
2016-Jul-27 00:33N 59°55' E 030°16'4 3.8
2016-Jul-26 23:33N 59°56' E 030°24'0 0.2
2016-Jul-26 22:33N 59°55' E 030°24'0 0.0
2016-Jul-26 21:33N 59°55' E 030°24'0 0.0
2016-Jul-26 18:30N 59°55' E 030°24'0 0.0
2016-Jul-26 17:29N 59°55' E 030°24'0 0.0
2016-Jul-26 16:33N 59°55' E 030°24'0 0.0
2016-Jul-26 15:21N 59°55' E 030°24'0 0.0
2016-Jul-26 14:32N 59°55' E 030°24'0 0.0
2016-Jul-26 13:33N 59°55' E 030°24'0 0.0
2016-Jul-26 12:29N 59°55' E 030°24'0 0.0
2016-Jul-26 11:31N 59°55' E 030°24'0 0.0
2016-Jul-26 10:33N 59°55' E 030°24'0 0.0
2016-Jul-26 09:33N 59°55' E 030°24'0 0.0
2016-Jul-26 08:33N 59°55' E 030°24'4 4.0
2016-Jul-26 07:28N 59°52' E 030°29'  
2016-Jul-20 01:22N 59°48' E 030°39'6 5.2
2016-Jul-20 00:16N 59°51' E 030°30'4 5.6
2016-Jul-19 23:30N 59°55' E 030°25'4 4.1
2016-Jul-19 22:33N 59°56' E 030°18'0 0.3
2016-Jul-19 21:33N 59°56' E 030°17'0 0.0
2016-Jul-19 20:33N 59°56' E 030°17'0 0.0
2016-Jul-19 19:33N 59°56' E 030°17'0 0.0
2016-Jul-19 18:33N 59°56' E 030°17'0 0.0
2016-Jul-19 17:33N 59°56' E 030°17'  

Dump ship's entire track history